createdAt,value
2022-09-11T00:00:49.616Z,90.01
2022-09-11T00:02:51.099Z,88.43
2022-09-11T00:04:52.534Z,86.18
2022-09-11T00:06:53.956Z,84.80
2022-09-11T00:09:01.268Z,84.78
2022-09-11T00:11:17.383Z,83.69
2022-09-11T00:13:21.777Z,81.53
2022-09-11T00:15:23.228Z,79.48
2022-09-11T00:17:24.657Z,78.92
2022-09-11T00:19:28.155Z,78.94
2022-09-11T00:21:29.873Z,78.53
2022-09-11T00:23:31.665Z,78.78
2022-09-11T00:25:35.064Z,79.57
2022-09-11T00:27:36.560Z,79.93
2022-09-11T00:29:37.991Z,81.08
2022-09-11T00:31:39.870Z,82.58
2022-09-11T00:33:42.323Z,84.04
2022-09-11T00:35:44.890Z,84.55
2022-09-11T00:37:48.236Z,84.70
2022-09-11T00:39:50.285Z,85.76
2022-09-11T00:41:51.794Z,84.88
2022-09-11T00:43:59.659Z,83.61
2022-09-11T00:46:05.709Z,82.24
2022-09-11T00:48:10.683Z,79.63
2022-09-11T00:50:20.469Z,77.91
2022-09-11T00:52:26.967Z,76.78
2022-09-11T00:54:35.559Z,76.40
2022-09-11T00:56:37.419Z,73.02
2022-09-11T00:58:44.136Z,73.93
2022-09-11T01:00:46.171Z,74.25
2022-09-11T01:02:51.160Z,75.58
2022-09-11T01:04:54.223Z,76.43
2022-09-11T01:06:57.543Z,75.91
2022-09-11T01:08:59.287Z,76.10
2022-09-11T01:11:26.324Z,76.62
2022-09-11T01:13:42.337Z,77.01
2022-09-11T01:15:52.070Z,77.71
2022-09-11T01:17:56.399Z,78.64
2022-09-11T01:20:19.235Z,78.03
2022-09-11T01:22:51.409Z,77.77
2022-09-11T01:25:21.961Z,77.94
2022-09-11T01:27:42.640Z,77.07
2022-09-11T01:30:13.262Z,76.69
2022-09-11T01:32:15.181Z,76.89
2022-09-11T01:34:25.772Z,77.86
2022-09-11T01:36:36.272Z,77.34
2022-09-11T01:38:54.261Z,76.80
2022-09-11T01:41:21.807Z,77.06
2022-09-11T01:43:27.080Z,77.55
2022-09-11T01:45:30.117Z,80.48
2022-09-11T01:47:35.046Z,80.99
2022-09-11T01:49:50.910Z,80.98
2022-09-11T01:51:57.785Z,82.52
2022-09-11T01:54:02.356Z,83.66
2022-09-11T01:56:10.308Z,84.36
2022-09-11T01:58:19.201Z,86.06
2022-09-11T02:00:20.878Z,85.76
2022-09-11T02:02:29.579Z,86.90
2022-09-11T02:04:34.991Z,89.11
2022-09-11T02:06:48.300Z,90.35
2022-09-11T02:09:06.536Z,91.37
2022-09-11T02:11:11.285Z,89.01
2022-09-11T02:13:27.804Z,87.85
2022-09-11T02:15:39.015Z,87.51
2022-09-11T02:17:53.913Z,86.84
2022-09-11T02:19:58.042Z,86.49
2022-09-11T02:21:59.820Z,85.48
2022-09-11T02:24:02.111Z,83.65
2022-09-11T02:26:05.759Z,84.99
2022-09-11T02:28:07.241Z,86.79
2022-09-11T02:30:09.327Z,88.09
2022-09-11T02:32:11.615Z,88.07
2022-09-11T02:34:14.903Z,87.46
2022-09-11T02:36:43.749Z,84.04
2022-09-11T02:38:52.625Z,81.83
2022-09-11T02:41:10.052Z,81.43
2022-09-11T02:43:33.060Z,81.06
2022-09-11T02:46:05.551Z,80.51
2022-09-11T02:48:25.290Z,80.21
2022-09-11T02:50:48.263Z,80.82
2022-09-11T02:53:07.588Z,81.44
2022-09-11T02:55:20.664Z,81.05
2022-09-11T02:57:39.211Z,79.89
2022-09-11T02:59:52.847Z,78.90
2022-09-11T03:01:56.424Z,79.27
2022-09-11T03:03:57.965Z,79.69
2022-09-11T03:05:59.495Z,81.00
2022-09-11T03:08:04.389Z,82.67
2022-09-11T03:10:11.152Z,84.71
2022-09-11T03:12:12.605Z,85.73
2022-09-11T03:14:14.489Z,88.21
2022-09-11T03:16:15.967Z,90.02
2022-09-11T03:18:17.509Z,91.14
2022-09-11T03:20:20.139Z,92.29
2022-09-11T03:22:21.624Z,93.13
2022-09-11T03:24:23.070Z,93.52
2022-09-11T03:26:25.791Z,94.35
2022-09-11T03:28:27.312Z,94.34
2022-09-11T03:30:28.765Z,94.82
2022-09-11T03:32:31.911Z,94.94
2022-09-11T03:34:34.314Z,94.73
2022-09-11T03:36:36.567Z,95.06
2022-09-11T03:38:38.171Z,94.88
2022-09-11T03:40:41.671Z,94.73
2022-09-11T03:42:43.169Z,95.19
2022-09-11T03:44:45.566Z,94.84
2022-09-11T03:46:47.083Z,94.91
2022-09-11T03:48:48.487Z,95.27
2022-09-11T03:50:49.918Z,95.30
2022-09-11T03:52:51.442Z,95.10
2022-09-11T03:54:52.853Z,95.64
2022-09-11T03:56:54.277Z,96.04
2022-09-11T03:58:57.188Z,96.04
2022-09-11T04:00:59.199Z,96.48
2022-09-11T04:03:01.937Z,96.46
2022-09-11T04:05:04.464Z,96.93
2022-09-11T04:07:05.892Z,96.97
2022-09-11T04:09:08.983Z,97.09
2022-09-11T04:11:14.276Z,97.47
2022-09-11T04:13:16.701Z,97.33
2022-09-11T04:15:18.155Z,97.86
2022-09-11T04:17:19.584Z,97.94
2022-09-11T04:19:21.636Z,98.16
2022-09-11T04:21:23.091Z,98.18
2022-09-11T04:23:25.266Z,97.91
2022-09-11T04:25:26.747Z,98.29
2022-09-11T04:27:28.222Z,98.29
2022-09-11T04:29:29.836Z,98.20
2022-09-11T04:31:31.395Z,98.47
2022-09-11T04:33:34.762Z,98.37
2022-09-11T04:35:40.597Z,98.47
2022-09-11T04:37:42.003Z,98.44
2022-09-11T04:39:43.501Z,97.60
2022-09-11T04:41:45.194Z,97.06
2022-09-11T04:43:47.185Z,96.84
2022-09-11T04:45:48.708Z,96.90
2022-09-11T04:47:52.755Z,95.40
2022-09-11T04:49:55.099Z,92.63
2022-09-11T04:51:57.912Z,89.76
2022-09-11T04:53:59.835Z,86.31
2022-09-11T04:56:15.369Z,87.44
2022-09-11T04:58:16.813Z,89.23
2022-09-11T05:00:18.273Z,91.18
2022-09-11T05:02:20.018Z,92.21
2022-09-11T05:04:25.992Z,93.61
2022-09-11T05:06:30.206Z,94.62
2022-09-11T05:08:33.461Z,94.94
2022-09-11T05:10:38.319Z,95.30
2022-09-11T05:12:39.725Z,95.97
2022-09-11T05:14:41.194Z,96.58
2022-09-11T05:16:44.063Z,97.10
2022-09-11T05:18:51.964Z,97.09
2022-09-11T05:21:01.752Z,97.40
2022-09-11T05:23:03.328Z,98.03
2022-09-11T05:25:05.014Z,97.82
2022-09-11T05:27:07.461Z,97.71
2022-09-11T05:29:13.373Z,97.91
2022-09-11T05:31:17.278Z,98.41
2022-09-11T05:33:18.963Z,98.61
2022-09-11T05:35:21.366Z,98.62
2022-09-11T05:37:22.815Z,98.75
2022-09-11T05:39:24.537Z,98.76
2022-09-11T05:41:26.562Z,98.98
2022-09-11T05:43:28.147Z,99.15
2022-09-11T05:45:29.612Z,99.22
2022-09-11T05:47:31.032Z,98.98
2022-09-11T05:49:32.538Z,99.28
2022-09-11T05:51:37.603Z,98.47
2022-09-11T05:53:40.739Z,90.17
2022-09-11T05:55:42.193Z,87.42
2022-09-11T05:57:43.622Z,88.39
2022-09-11T05:59:45.069Z,89.34
2022-09-11T06:01:47.677Z,90.26
2022-09-11T06:03:49.868Z,92.13
2022-09-11T06:05:51.286Z,93.72
2022-09-11T06:07:53.584Z,94.67
2022-09-11T06:09:56.321Z,95.00
2022-09-11T06:12:01.681Z,95.41
2022-09-11T06:14:03.119Z,95.91
2022-09-11T06:16:05.412Z,95.72
2022-09-11T06:18:07.693Z,94.75
2022-09-11T06:20:12.932Z,94.90
2022-09-11T06:22:14.598Z,95.36
2022-09-11T06:24:16.060Z,95.45
2022-09-11T06:26:19.652Z,91.01
2022-09-11T06:28:24.023Z,85.74
2022-09-11T06:30:25.530Z,87.65
2022-09-11T06:32:27.044Z,88.92
2022-09-11T06:34:28.466Z,90.38
2022-09-11T06:36:31.488Z,91.82
2022-09-11T06:38:33.241Z,92.83
2022-09-11T06:40:37.052Z,93.93
2022-09-11T06:42:39.412Z,90.68
2022-09-11T06:44:42.023Z,92.50
2022-09-11T06:46:44.317Z,93.42
2022-09-11T06:48:48.218Z,94.32
2022-09-11T06:50:49.650Z,94.76
2022-09-11T06:52:51.874Z,89.92
2022-09-11T06:54:53.387Z,81.39
2022-09-11T06:56:54.809Z,79.85
2022-09-11T06:58:56.310Z,77.23
2022-09-11T07:01:04.952Z,77.49
2022-09-11T07:03:06.474Z,73.67
2022-09-11T07:05:10.836Z,75.49
2022-09-11T07:07:12.251Z,74.68
2022-09-11T07:09:13.775Z,78.01
2022-09-11T07:11:15.311Z,74.89
2022-09-11T07:13:16.793Z,76.39
2022-09-11T07:15:18.313Z,73.44
2022-09-11T07:17:19.739Z,71.22
2022-09-11T07:19:24.825Z,75.03
2022-09-11T07:21:27.677Z,73.50
2022-09-11T07:23:29.084Z,72.21
2022-09-11T07:25:30.559Z,71.43
2022-09-11T07:27:33.557Z,69.68
2022-09-11T07:29:35.064Z,69.50
2022-09-11T07:31:38.143Z,70.69
2022-09-11T07:33:42.945Z,70.75
2022-09-11T07:35:44.506Z,70.83
2022-09-11T07:37:50.615Z,71.96
2022-09-11T07:39:52.368Z,69.70
2022-09-11T07:41:53.862Z,68.38
2022-09-11T07:43:58.005Z,68.97
2022-09-11T07:45:59.439Z,68.36
2022-09-11T07:48:01.753Z,68.69
2022-09-11T07:50:03.757Z,69.65
2022-09-11T07:52:05.395Z,69.06
2022-09-11T07:54:08.054Z,68.43
2022-09-11T07:56:15.611Z,69.04
2022-09-11T07:58:17.146Z,68.18
2022-09-11T08:00:18.722Z,69.12
2022-09-11T08:02:20.321Z,69.19
2022-09-11T08:04:21.863Z,69.21
2022-09-11T08:06:24.003Z,69.75
2022-09-11T08:08:26.150Z,69.03
2022-09-11T08:10:28.297Z,69.46
2022-09-11T08:12:31.278Z,69.41
2022-09-11T08:14:32.766Z,69.18
2022-09-11T08:16:36.287Z,68.95
2022-09-11T08:18:37.849Z,76.74
2022-09-11T08:20:39.338Z,80.70
2022-09-11T08:22:42.038Z,82.10
2022-09-11T08:24:43.467Z,85.14
2022-09-11T08:26:48.755Z,87.15
2022-09-11T08:28:52.737Z,87.76
2022-09-11T08:30:58.915Z,88.66
2022-09-11T08:33:01.405Z,88.30
2022-09-11T08:35:02.845Z,81.01
2022-09-11T08:37:04.436Z,76.00
2022-09-11T08:39:06.038Z,75.37
2022-09-11T08:41:12.904Z,79.49
2022-09-11T08:43:22.368Z,84.09
2022-09-11T08:45:28.558Z,86.33
2022-09-11T08:47:34.735Z,87.51
2022-09-11T08:49:42.966Z,87.97
2022-09-11T08:51:45.408Z,88.07
2022-09-11T08:53:47.875Z,87.18
2022-09-11T08:55:53.122Z,87.30
2022-09-11T08:58:21.706Z,87.07
2022-09-11T09:00:32.077Z,87.27
2022-09-11T09:02:42.033Z,87.18
2022-09-11T09:04:50.927Z,87.35
2022-09-11T09:07:13.670Z,84.96
2022-09-11T09:09:35.261Z,85.11
2022-09-11T09:11:52.626Z,85.08
2022-09-11T09:14:12.760Z,85.22
2022-09-11T09:17:03.274Z,85.39
2022-09-11T09:19:17.288Z,84.94
2022-09-11T09:21:27.949Z,85.02
2022-09-11T09:23:35.697Z,83.94
2022-09-11T09:25:42.093Z,83.21
2022-09-11T09:27:47.197Z,82.96
2022-09-11T09:29:55.820Z,83.00
2022-09-11T09:32:03.467Z,74.64
2022-09-11T09:34:17.218Z,75.00
2022-09-11T09:36:41.415Z,67.41
2022-09-11T09:38:43.652Z,67.76
2022-09-11T09:40:59.599Z,72.80
2022-09-11T09:43:08.110Z,73.02
2022-09-11T09:45:19.133Z,75.23
2022-09-11T09:47:20.940Z,77.33
2022-09-11T09:49:29.691Z,73.49
2022-09-11T09:51:31.143Z,74.61
2022-09-11T09:54:00.415Z,75.48
2022-09-11T09:56:04.194Z,76.52
2022-09-11T09:58:07.129Z,76.76
2022-09-11T10:00:12.680Z,76.33
2022-09-11T10:02:40.630Z,76.83
2022-09-11T10:04:42.233Z,76.90
2022-09-11T10:06:46.244Z,76.78
2022-09-11T10:08:47.727Z,77.41
2022-09-11T10:10:57.243Z,74.04
2022-09-11T10:13:24.902Z,72.41
2022-09-11T10:15:26.609Z,66.56
2022-09-11T10:17:31.345Z,63.07
2022-09-11T10:19:43.295Z,63.02
2022-09-11T10:21:44.737Z,66.41
2022-09-11T10:23:55.285Z,69.49
2022-09-11T10:25:57.147Z,65.03
2022-09-11T10:28:08.920Z,63.86
2022-09-11T10:30:30.102Z,64.01
2022-09-11T10:32:36.190Z,65.92
2022-09-11T10:34:40.498Z,70.67
2022-09-11T10:37:13.775Z,71.58
2022-09-11T10:39:19.867Z,72.33
2022-09-11T10:41:27.599Z,71.60
2022-09-11T10:44:05.434Z,70.94
2022-09-11T10:46:19.184Z,69.59
2022-09-11T10:48:23.336Z,68.64
2022-09-11T10:50:26.834Z,70.15
2022-09-11T10:52:29.814Z,70.74
2022-09-11T10:54:55.791Z,62.41
2022-09-11T10:57:00.334Z,61.37
2022-09-11T10:59:11.235Z,60.55
2022-09-11T11:01:13.267Z,61.17
2022-09-11T11:03:24.927Z,62.44
2022-09-11T11:05:41.489Z,63.66
2022-09-11T11:08:16.389Z,64.77
2022-09-11T11:10:26.850Z,64.69
2022-09-11T11:12:42.547Z,64.18
2022-09-11T11:14:59.516Z,62.66
2022-09-11T11:17:15.173Z,62.21
2022-09-11T11:19:49.309Z,61.22
2022-09-11T11:21:53.598Z,59.80
2022-09-11T11:24:07.876Z,56.19
2022-09-11T11:26:23.975Z,54.59
2022-09-11T11:28:46.833Z,53.49
2022-09-11T11:31:07.100Z,52.36
2022-09-11T11:33:17.443Z,52.07
2022-09-11T11:35:31.969Z,52.30
2022-09-11T11:37:40.448Z,52.23
2022-09-11T11:40:04.002Z,51.17
2022-09-11T11:42:26.790Z,50.35
2022-09-11T11:44:39.755Z,53.37
2022-09-11T11:46:52.338Z,54.15
2022-09-11T11:49:05.904Z,55.45
2022-09-11T11:51:12.634Z,56.52
2022-09-11T11:53:38.691Z,56.27
2022-09-11T11:55:45.596Z,56.95
2022-09-11T11:57:54.141Z,56.65
2022-09-11T12:00:05.351Z,55.80
2022-09-11T12:02:09.640Z,54.25
2022-09-11T12:04:21.780Z,54.21
2022-09-11T12:06:23.222Z,53.65
2022-09-11T12:08:24.784Z,53.22
2022-09-11T12:10:31.454Z,52.26
2022-09-11T12:12:47.679Z,53.56
2022-09-11T12:15:02.403Z,55.55
2022-09-11T12:17:23.118Z,57.00
2022-09-11T12:19:27.763Z,58.16
2022-09-11T12:21:31.564Z,58.72
2022-09-11T12:23:54.580Z,58.47
2022-09-11T12:26:07.949Z,57.07
2022-09-11T12:28:25.176Z,56.89
2022-09-11T12:30:28.642Z,55.61
2022-09-11T12:32:41.910Z,55.85
2022-09-11T12:34:43.295Z,54.73
2022-09-11T12:36:54.040Z,54.51
2022-09-11T12:39:01.337Z,55.03
2022-09-11T12:41:13.506Z,55.05
2022-09-11T12:43:17.636Z,56.16
2022-09-11T12:45:38.620Z,56.61
2022-09-11T12:47:40.438Z,56.51
2022-09-11T12:49:51.358Z,55.56
2022-09-11T12:52:00.100Z,54.50
2022-09-11T12:54:11.127Z,54.94
2022-09-11T12:56:21.897Z,54.40
2022-09-11T12:58:45.670Z,53.85
2022-09-11T13:01:12.618Z,53.86
2022-09-11T13:03:21.776Z,54.84
2022-09-11T13:05:37.783Z,53.83
2022-09-11T13:07:44.491Z,54.60
2022-09-11T13:09:49.668Z,55.44
2022-09-11T13:11:53.440Z,55.73
2022-09-11T13:13:54.966Z,54.91
2022-09-11T13:15:58.356Z,54.83
2022-09-11T13:17:59.901Z,54.75
2022-09-11T13:20:10.139Z,54.95
2022-09-11T13:22:25.050Z,55.71
2022-09-11T13:24:26.494Z,56.37
2022-09-11T13:26:32.722Z,56.22
2022-09-11T13:28:44.980Z,56.48
2022-09-11T13:31:04.799Z,55.12
2022-09-11T13:33:08.991Z,56.10
2022-09-11T13:35:17.005Z,55.29
2022-09-11T13:37:50.518Z,55.80
2022-09-11T13:39:52.222Z,56.27
2022-09-11T13:42:05.251Z,56.04
2022-09-11T13:44:41.692Z,55.43
2022-09-11T13:46:51.812Z,55.46
2022-09-11T13:48:57.960Z,55.87
2022-09-11T13:50:59.530Z,56.35
2022-09-11T13:53:01.109Z,56.55
2022-09-11T13:55:12.394Z,56.77
2022-09-11T13:57:25.832Z,56.36
2022-09-11T13:59:44.903Z,55.22
2022-09-11T14:01:55.831Z,55.59
2022-09-11T14:03:57.414Z,56.30
2022-09-11T14:06:01.594Z,56.30
2022-09-11T14:08:07.578Z,56.59
2022-09-11T14:10:24.507Z,54.37
2022-09-11T14:12:27.936Z,54.79
2022-09-11T14:14:29.719Z,55.33
2022-09-11T14:16:38.322Z,56.40
2022-09-11T14:18:56.553Z,55.42
2022-09-11T14:21:01.682Z,56.41
2022-09-11T14:23:06.234Z,57.07
2022-09-11T14:25:21.869Z,54.95
2022-09-11T14:27:35.104Z,56.73
2022-09-11T14:29:37.413Z,53.54
2022-09-11T14:31:46.933Z,53.58
2022-09-11T14:33:48.654Z,52.02
2022-09-11T14:35:51.908Z,52.96
2022-09-11T14:37:53.333Z,53.71
2022-09-11T14:39:59.057Z,54.36
2022-09-11T14:42:01.808Z,53.41
2022-09-11T14:44:03.294Z,53.40
2022-09-11T14:46:05.133Z,52.74
2022-09-11T14:48:14.444Z,53.00
2022-09-11T14:50:15.924Z,54.73
2022-09-11T14:52:20.386Z,55.65
2022-09-11T14:54:22.601Z,56.12
2022-09-11T14:56:24.050Z,53.59
2022-09-11T14:58:27.049Z,52.80
2022-09-11T15:00:28.466Z,53.53
2022-09-11T15:02:29.899Z,52.44
2022-09-11T15:04:31.369Z,52.76
2022-09-11T15:06:32.866Z,51.70
2022-09-11T15:08:34.326Z,54.65
2022-09-11T15:10:35.893Z,52.86
2022-09-11T15:12:37.371Z,51.38
2022-09-11T15:14:58.221Z,53.00
2022-09-11T15:17:03.056Z,51.14
2022-09-11T15:19:04.603Z,52.06
2022-09-11T15:21:06.232Z,53.09
2022-09-11T15:23:07.725Z,53.51
2022-09-11T15:25:09.282Z,51.78
2022-09-11T15:27:10.945Z,51.37
2022-09-11T15:29:12.418Z,51.47
2022-09-11T15:31:15.683Z,51.56
2022-09-11T15:33:17.125Z,54.02
2022-09-11T15:35:18.625Z,54.67
2022-09-11T15:37:20.186Z,55.23
2022-09-11T15:39:24.275Z,55.32
2022-09-11T15:41:27.964Z,55.73
2022-09-11T15:43:35.802Z,55.53
2022-09-11T15:45:42.877Z,55.83
2022-09-11T15:47:44.499Z,56.29
2022-09-11T15:49:47.777Z,55.95
2022-09-11T15:51:50.909Z,55.70
2022-09-11T15:53:52.356Z,55.91
2022-09-11T15:56:04.244Z,56.10
2022-09-11T15:58:05.699Z,55.79
2022-09-11T16:00:07.953Z,55.49
2022-09-11T16:02:12.225Z,55.99
2022-09-11T16:04:18.606Z,55.66
2022-09-11T16:06:21.064Z,55.59
2022-09-11T16:08:23.387Z,55.59
2022-09-11T16:10:24.850Z,55.73
2022-09-11T16:12:26.394Z,54.98
2022-09-11T16:14:35.995Z,51.89
2022-09-11T16:16:37.675Z,51.01
2022-09-11T16:18:39.114Z,52.09
2022-09-11T16:20:41.625Z,52.60
2022-09-11T16:22:44.105Z,51.76
2022-09-11T16:24:45.649Z,51.23
2022-09-11T16:26:47.323Z,51.81
2022-09-11T16:28:48.770Z,52.66
2022-09-11T16:30:53.821Z,52.68
2022-09-11T16:32:55.257Z,53.57
2022-09-11T16:34:57.615Z,53.55
2022-09-11T16:36:59.883Z,52.78
2022-09-11T16:39:01.355Z,52.79
2022-09-11T16:41:09.365Z,52.83
2022-09-11T16:43:10.853Z,53.38
2022-09-11T16:45:12.305Z,54.00
2022-09-11T16:47:13.726Z,54.34
2022-09-11T16:49:18.374Z,54.03
2022-09-11T16:51:20.771Z,54.34
2022-09-11T16:53:23.228Z,54.83
2022-09-11T16:55:25.393Z,55.24
2022-09-11T16:57:29.614Z,55.40
2022-09-11T16:59:31.046Z,56.54
2022-09-11T17:01:32.533Z,57.04
2022-09-11T17:03:39.476Z,56.95
2022-09-11T17:06:01.017Z,56.58
2022-09-11T17:08:03.229Z,56.73
2022-09-11T17:10:05.014Z,57.12
2022-09-11T17:12:06.952Z,57.09
2022-09-11T17:14:08.357Z,57.40
2022-09-11T17:16:16.083Z,57.85
2022-09-11T17:18:18.113Z,58.10
2022-09-11T17:20:20.016Z,58.61
2022-09-11T17:22:21.457Z,58.85
2022-09-11T17:24:24.122Z,59.23
2022-09-11T17:26:25.627Z,59.55
2022-09-11T17:28:27.136Z,59.96
2022-09-11T17:30:28.681Z,60.29
2022-09-11T17:32:31.233Z,60.55
2022-09-11T17:34:32.761Z,60.78
2022-09-11T17:36:34.487Z,61.00
2022-09-11T17:38:37.197Z,61.51
2022-09-11T17:40:38.990Z,61.69
2022-09-11T17:42:40.781Z,62.17
2022-09-11T17:44:42.333Z,62.30
2022-09-11T17:46:43.861Z,62.51
2022-09-11T17:48:46.030Z,62.63
2022-09-11T17:50:48.750Z,63.14
2022-09-11T17:52:50.740Z,63.26
2022-09-11T17:54:52.167Z,63.50
2022-09-11T17:56:58.013Z,63.69
2022-09-11T17:59:00.637Z,63.54
2022-09-11T18:01:02.900Z,63.45
2022-09-11T18:03:04.460Z,63.79
2022-09-11T18:05:07.133Z,63.70
2022-09-11T18:07:08.555Z,63.76
2022-09-11T18:09:13.892Z,64.05
2022-09-11T18:11:15.385Z,64.22
2022-09-11T18:13:16.810Z,64.29
2022-09-11T18:15:18.808Z,64.76
2022-09-11T18:17:20.371Z,64.80
2022-09-11T18:19:22.808Z,64.77
2022-09-11T18:21:26.000Z,64.50
2022-09-11T18:23:27.481Z,65.02
2022-09-11T18:25:30.123Z,65.02
2022-09-11T18:27:31.585Z,65.14
2022-09-11T18:29:35.553Z,65.32
2022-09-11T18:31:40.027Z,65.32
2022-09-11T18:33:41.569Z,65.39
2022-09-11T18:35:44.256Z,65.28
2022-09-11T18:37:45.706Z,65.61
2022-09-11T18:39:48.671Z,65.60
2022-09-11T18:41:52.690Z,65.84
2022-09-11T18:43:55.667Z,66.05
2022-09-11T18:46:02.223Z,66.11
2022-09-11T18:48:04.834Z,66.16
2022-09-11T18:50:07.050Z,66.22
2022-09-11T18:52:08.820Z,65.93
2022-09-11T18:54:14.970Z,66.46
2022-09-11T18:56:16.411Z,66.86
2022-09-11T18:58:17.823Z,66.63
2022-09-11T19:00:19.369Z,66.75
2022-09-11T19:02:20.862Z,66.75
2022-09-11T19:04:23.304Z,66.99
2022-09-11T19:06:27.588Z,67.21
2022-09-11T19:08:29.057Z,67.15
2022-09-11T19:10:30.562Z,67.16
2022-09-11T19:12:32.025Z,67.18
2022-09-11T19:14:35.891Z,67.39
2022-09-11T19:16:38.529Z,67.49
2022-09-11T19:18:40.544Z,67.57
2022-09-11T19:20:43.288Z,67.53
2022-09-11T19:22:44.712Z,67.50
2022-09-11T19:24:46.278Z,67.68
2022-09-11T19:26:47.727Z,67.74
2022-09-11T19:28:50.429Z,67.82
2022-09-11T19:31:00.553Z,67.62
2022-09-11T19:33:02.233Z,67.85
2022-09-11T19:35:04.759Z,67.98
2022-09-11T19:37:06.190Z,67.94
2022-09-11T19:39:09.874Z,67.98
2022-09-11T19:41:14.580Z,68.08
2022-09-11T19:43:16.615Z,68.29
2022-09-11T19:45:18.126Z,68.70
2022-09-11T19:47:19.555Z,68.43
2022-09-11T19:49:20.987Z,68.35
2022-09-11T19:51:23.838Z,68.28
2022-09-11T19:53:25.273Z,68.21
2022-09-11T19:55:26.731Z,68.14
2022-09-11T19:57:28.232Z,68.37
2022-09-11T19:59:30.127Z,68.48
2022-09-11T20:01:31.695Z,69.11
2022-09-11T20:03:33.147Z,70.98
2022-09-11T20:05:34.560Z,72.16
2022-09-11T20:07:37.721Z,72.22
2022-09-11T20:09:40.275Z,71.62
2022-09-11T20:11:41.733Z,70.57
2022-09-11T20:13:43.463Z,69.91
2022-09-11T20:15:45.508Z,69.91
2022-09-11T20:17:46.944Z,69.42
2022-09-11T20:19:48.384Z,69.23
2022-09-11T20:21:49.835Z,68.70
2022-09-11T20:23:55.467Z,69.03
2022-09-11T20:26:16.318Z,68.86
2022-09-11T20:28:18.554Z,68.85
2022-09-11T20:30:20.055Z,69.55
2022-09-11T20:32:21.488Z,71.63
2022-09-11T20:34:27.732Z,76.14
2022-09-11T20:36:30.098Z,78.65
2022-09-11T20:38:31.647Z,80.45
2022-09-11T20:40:36.308Z,81.18
2022-09-11T20:42:37.916Z,81.98
2022-09-11T20:44:39.578Z,80.10
2022-09-11T20:46:41.278Z,75.78
2022-09-11T20:48:42.767Z,73.60
2022-09-11T20:50:44.658Z,71.83
2022-09-11T20:52:46.648Z,71.47
2022-09-11T20:54:49.043Z,71.41
2022-09-11T20:56:50.533Z,71.45
2022-09-11T20:58:52.521Z,71.68
2022-09-11T21:00:53.977Z,72.36
2022-09-11T21:02:55.457Z,72.76
2022-09-11T21:04:56.880Z,72.62
2022-09-11T21:06:58.303Z,71.73
2022-09-11T21:09:03.107Z,71.18
2022-09-11T21:11:05.481Z,70.78
2022-09-11T21:13:07.022Z,70.98
2022-09-11T21:15:09.121Z,70.53
2022-09-11T21:17:10.553Z,70.29
2022-09-11T21:19:12.041Z,69.65
2022-09-11T21:21:13.560Z,70.01
2022-09-11T21:23:15.018Z,70.20
2022-09-11T21:25:16.657Z,69.97
2022-09-11T21:27:18.181Z,70.09
2022-09-11T21:29:19.746Z,70.29
2022-09-11T21:31:21.351Z,71.74
2022-09-11T21:33:22.897Z,71.63
2022-09-11T21:35:24.380Z,71.81
2022-09-11T21:37:25.846Z,71.35
2022-09-11T21:39:27.358Z,71.27
2022-09-11T21:41:28.887Z,70.89
2022-09-11T21:43:30.516Z,70.45
2022-09-11T21:45:31.954Z,70.58
2022-09-11T21:47:33.386Z,70.90
2022-09-11T21:49:34.804Z,71.15
2022-09-11T21:51:36.222Z,70.74
2022-09-11T21:53:38.888Z,70.69
2022-09-11T21:55:43.057Z,70.72
2022-09-11T21:57:44.615Z,70.70
2022-09-11T21:59:46.046Z,71.82
2022-09-11T22:01:47.495Z,74.65
2022-09-11T22:03:50.096Z,74.04
2022-09-11T22:05:51.518Z,71.91
2022-09-11T22:07:53.438Z,70.98
2022-09-11T22:09:55.662Z,71.08
2022-09-11T22:11:59.939Z,71.26
2022-09-11T22:14:01.674Z,71.11
2022-09-11T22:16:06.233Z,71.01
2022-09-11T22:18:08.004Z,70.94
2022-09-11T22:20:10.027Z,70.64
2022-09-11T22:22:12.886Z,70.70
2022-09-11T22:24:14.385Z,70.42
2022-09-11T22:26:19.255Z,70.81
2022-09-11T22:28:20.689Z,70.49
2022-09-11T22:30:23.633Z,70.85
2022-09-11T22:32:25.386Z,72.72
2022-09-11T22:34:26.971Z,72.89
2022-09-11T22:36:29.781Z,72.82
2022-09-11T22:38:31.217Z,72.55
2022-09-11T22:40:32.696Z,71.30
2022-09-11T22:42:34.110Z,70.72
2022-09-11T22:44:35.549Z,71.01
2022-09-11T22:46:37.043Z,70.79
2022-09-11T22:48:38.579Z,70.77
2022-09-11T22:50:39.988Z,71.99
2022-09-11T22:52:41.417Z,72.42
2022-09-11T22:54:44.150Z,72.19
2022-09-11T22:56:45.565Z,71.83
2022-09-11T22:58:47.499Z,71.42
2022-09-11T23:00:50.294Z,71.11
2022-09-11T23:02:51.853Z,70.88
2022-09-11T23:05:11.901Z,70.93
2022-09-11T23:07:15.950Z,71.04
2022-09-11T23:09:17.427Z,71.04
2022-09-11T23:11:19.872Z,70.71
2022-09-11T23:13:21.479Z,70.48
2022-09-11T23:15:22.968Z,70.62
2022-09-11T23:17:24.430Z,70.31
2022-09-11T23:19:25.935Z,70.34
2022-09-11T23:21:29.500Z,70.48
2022-09-11T23:23:30.919Z,70.78
2022-09-11T23:25:33.910Z,70.90
2022-09-11T23:27:35.384Z,71.34
2022-09-11T23:29:36.796Z,70.97
2022-09-11T23:31:38.855Z,70.95
2022-09-11T23:33:40.870Z,70.99
2022-09-11T23:35:42.402Z,70.90
2022-09-11T23:37:45.522Z,70.48
2022-09-11T23:39:47.217Z,70.46
2022-09-11T23:41:49.147Z,71.96
2022-09-11T23:43:51.569Z,72.63
2022-09-11T23:45:53.056Z,71.77
2022-09-11T23:47:54.817Z,71.68
2022-09-11T23:49:57.630Z,72.06
2022-09-11T23:51:59.032Z,72.03
2022-09-11T23:54:00.449Z,72.75
2022-09-11T23:56:02.126Z,72.31
2022-09-11T23:58:03.888Z,71.69
